Manuel Araujo

Scout - Nacional
5 Dez 2027
Sonntag
Verarbeitung

Persönlichkeit

Anpassungsfähigkeit (17) Ehrgeiz (17) Kontroverse (16) Loyalität (15) Druck (2) Professionalität (6) Fairness (13) Temperament (19)

Profil

Trainerstil Demokratisch
Lizenz Kontinentale A
Entschlossenheit 9
Menschenführung 12
Motivation 5
Disziplin 11
Arbeitszufriedenheit
100%
Ermüdung
0%
Rolle Scout
Gehalt 75.2K p/W
Vertrag 14.03.2029

Leistung

Verhalten Gut
Trainingseffektivität
46%
Spielerentwicklung
50%
Verletzungsprävention
25%
Taktische Umsetzung
70%

Letzte Ereignisse

Nahm an einer Scouting-Besprechung teil 14T her
Nahm an einer Scouting-Besprechung teil 21T her
Nahm an einer Scouting-Besprechung teil 28T her
Geburtstag 28T her
Nahm an einer Scouting-Besprechung teil 35T her
Nahm an einer Scouting-Besprechung teil 42T her
Nahm an einer Scouting-Besprechung teil 49T her
Nahm an einer Scouting-Besprechung teil 56T her

Aktuell beobachtet

105
Spieler Verein Status Fähigkeit Vertrauen Beobachtet Zuletzt beobachtet Letzte Stimme
Agustín Alaniz Juventud Aktiv 112 / 119 51% 1 12.07.2027 -
Patrick Agyemang Derby County Aktiv 129 / 131 40% 3 29.05.2027 -
Camillo Tavernelli Arezzo Aktiv 125 / 114 40% 1 29.05.2027 -
Aarón Quiros Vélez Aktiv 125 / 127 40% 1 28.05.2027 -
Jarrad Branthwaite Everton Aktiv 172 / 147 40% 1 28.05.2027 -
Sondre Langås Derby County Aktiv 121 / 141 40% 1 27.05.2027 -
Welington Southampton Aktiv 116 / 140 40% 1 27.05.2027 -
Ludovico Del Sorbo Sorrento Aktiv 102 / 126 40% 1 27.05.2027 -
Milan van Ewijk Coventry City Aktiv 150 / 124 40% 3 25.05.2027 -
Edoardo Bove Watford Aktiv 115 / 127 40% 4 25.05.2027 -
Brooke Norton-Cuffy Hull City Aktiv 145 / 139 40% 1 23.05.2027 -
Florentino Luís Ipswich Town Aktiv 134 / 129 40% 1 23.05.2027 -
Lee Bonis Chesterfield Aktiv 117 / 111 40% 1 22.05.2027 -
Thiago Calone All Boys Aktiv 112 / 115 40% 1 22.05.2027 -
Tom Cannon Sheffield United Aktiv 127 / 136 40% 3 21.05.2027 -
Edoardo Motta Lazio Aktiv 122 / 119 40% 2 21.05.2027 -
Tomás Paredes Colón Aktiv 107 / 98 40% 2 21.05.2027 -
Efraín Álvarez Udinese Aktiv 136 / 122 40% 2 21.05.2027 -
Mateo Bajamich Atlético Tucumán Aktiv 130 / 117 40% 3 20.05.2027 -
Santiago Sala Güemes Aktiv 109 / 120 40% 1 20.05.2027 -
Giacomo Raspadori Atalanta Aktiv 162 / 135 40% 3 15.05.2027 -
Lorenzo Colombo Genoa Aktiv 133 / 133 40% 2 15.05.2027 -
Alessandro Buongiorno Udinese Aktiv 140 / 162 40% 2 14.05.2027 -
Ethan Ampadu Leeds United Aktiv 158 / 146 40% 1 14.05.2027 -
James Garner Everton Aktiv 139 / 150 40% 2 12.05.2027 -
Rumarn Burrell Queens Park Rangers Aktiv 120 / 133 40% 2 11.05.2027 -
Zeki Amdouni Burnley Aktiv 128 / 117 40% 1 11.05.2027 -
Lorenzo Amatucci Deportivo La Coruña Aktiv 115 / 132 40% 1 11.05.2027 -
Guille Rosas Gijón Aktiv 152 / 146 40% 2 10.05.2027 -
Adam Randell Bristol City Aktiv 147 / 123 40% 1 08.05.2027 -
Melker Ellborg Sunderland Aktiv 144 / 130 40% 3 07.05.2027 -
Mehdi Dorval Catanzaro Aktiv 139 / 142 40% 1 07.05.2027 -
Noah Sadiki Sunderland Aktiv 139 / 148 40% 1 04.05.2027 -
Ferdi Kadıoğlu Stoke City Aktiv 161 / 161 40% 3 01.05.2027 -
Adrià Altimira Deportivo La Coruña Aktiv 150 / 116 40% 2 01.05.2027 -
Oumar Solet Udinese Aktiv 137 / 133 40% 2 29.04.2027 -
Issa Kaboré Wrexham Aktiv 148 / 135 40% 1 29.04.2027 -
Ilyas Ansah Hull City Aktiv 116 / 126 40% 3 27.04.2027 -
Aune Heggebø West Bromwich Albion Aktiv 140 / 119 40% 4 26.04.2027 -
Cameron Archer Southampton Aktiv 127 / 114 40% 1 26.04.2027 -
Alexander Díaz Deportivo Riestra Aktiv 127 / 119 40% 1 22.04.2027 -
Aidomo Emakhu Oxford United Aktiv 113 / 120 40% 2 18.04.2027 -
Rodrigo Muniz Fulham Aktiv 133 / 132 40% 3 18.04.2027 -
Iliman N'Diaye Derby County Aktiv 146 / 164 40% 1 16.04.2027 -
Marezi Portsmouth Aktiv 126 / 135 40% 1 16.04.2027 -
Tiziano Dornell Almagro Aktiv 118 / 114 40% 1 13.04.2027 -
Christian Saydee Wigan Athletic Aktiv 114 / 98 40% 1 13.04.2027 -
Yehor Yarmoliuk Brentford Aktiv 163 / 141 40% 1 12.04.2027 -
Killian Cahill Leyton Orient Aktiv 102 / 106 40% 3 10.04.2027 -
Yousef Salech Cardiff City Aktiv 129 / 123 40% 2 09.04.2027 -
Malik Mothersille Stockport County Aktiv 127 / 126 40% 1 06.04.2027 -
Thiago Brentford Aktiv 140 / 136 40% 1 06.04.2027 -
Sam Greenwood Bristol City Aktiv 122 / 117 40% 2 04.04.2027 -
Nicolás Bolcato Independiente Rivadavia Aktiv 117 / 121 40% 2 30.03.2027 -
Josh Keeley Luton Town Aktiv 130 / 140 40% 1 30.03.2027 -
Jack Hinshelwood Brighton Aktiv 132 / 140 40% 1 27.03.2027 -
Kristoffer Lund Birmingham Aktiv 109 / 133 40% 1 25.03.2027 -
Santiago Pierotti Lecce Aktiv 146 / 140 40% 1 23.03.2027 -
Jay Stansfield Birmingham Aktiv 112 / 129 40% 1 23.03.2027 -
Marcus Forss Bristol Rovers Aktiv 135 / 121 40% 1 22.03.2027 -
Nicolò Zaniolo Udinese Aktiv 158 / 144 40% 3 21.03.2027 -
Juan Manuel Boselli Krasnodar Aktiv 139 / 105 40% 2 20.03.2027 -
Éderson Atalanta Aktiv 144 / 166 40% 1 17.03.2027 -
Yasin Ayari Brighton Aktiv 123 / 163 40% 1 17.03.2027 -
Bobby Thomas Coventry City Aktiv 146 / 148 40% 2 15.03.2027 -
Raoul Bellanova Atalanta Aktiv 160 / 157 40% 1 15.03.2027 -
Japhet Tanganga Sheffield United Aktiv 114 / 135 40% 1 13.03.2027 -
Ethan Galbraith Swansea City Aktiv 153 / 132 40% 1 13.03.2027 -
Noah Okafor Leeds United Aktiv 123 / 137 40% 1 10.03.2027 -
Máximo Perrone Como Aktiv 138 / 156 40% 1 06.03.2027 -
Wandile Duba Maritzburg United Aktiv 113 / 94 40% 1 05.03.2027 -
Elia Summa Picerno Aktiv 119 / 127 40% 2 02.03.2027 -
Tom Booth Crewe Alexandra Aktiv 115 / 101 40% 2 25.02.2027 -
Gonzalo Fulham Aktiv 137 / 155 40% 1 18.02.2027 -
Youri Baas Bournemouth Aktiv 138 / 137 40% 1 14.02.2027 -
Jacques Ekomié Wrexham Aktiv 118 / 142 40% 1 14.02.2027 -
Javier Vallejos Central Córdoba SdE Aktiv 88 / 108 40% 1 12.02.2027 -
Alexandr Koryakin Krasnodar Aktiv 129 / 131 40% 1 10.02.2027 -
Filip Marschall Stevenage Aktiv 130 / 130 40% 3 01.02.2027 -
Mandla Phiri SuperSport United Aktiv 154 / 126 40% 1 31.01.2027 -
Brodie Spencer Oxford United Aktiv 112 / 116 40% 1 31.01.2027 -
Teden Mengi Luton Town Aktiv 109 / 134 40% 1 28.01.2027 -
Ollie Scarles West Ham United Aktiv 118 / 124 40% 1 28.01.2027 -
Harry Leonard Peterborough United Aktiv 102 / 108 40% 1 27.01.2027 -
Tyrese Campbell Sheffield United Aktiv 143 / 142 40% 1 27.01.2027 -
Iwan Morgan Grimsby Town Aktiv 118 / 104 40% 1 24.01.2027 -
Jordan Beyer Burnley Aktiv 124 / 124 40% 1 18.01.2027 -
Tristan Crama Millwall Aktiv 110 / 125 40% 1 14.01.2027 -
Francisco Vergara Gimnasia La Plata Aktiv 99 / 102 40% 2 21.11.2026 -
Lautaro Cueli San Lorenzo Aktiv 81 / 99 40% 1 21.11.2026 -
Franco Herrera Almería Aktiv 94 / 90 40% 1 19.11.2026 -
Aitor Fraga Real Sociedad Aktiv 133 / 136 40% 1 18.11.2026 -
Matías Caballero Patronato Aktiv 95 / 102 40% 1 10.11.2026 -
Diego Enríquez Sporting Cristal Aktiv 118 / 120 40% 1 03.11.2026 -
Aldo Pérez Guarani Aktiv 99 / 116 40% 2 02.11.2026 -
Egoitz Arana Real Sociedad Aktiv 107 / 102 40% 1 02.11.2026 -
Frankarlos Benítez Caracas Aktiv 109 / 108 40% 1 01.11.2026 -
Diego Romero Universitario Aktiv 117 / 115 40% 1 29.10.2026 -
Emanuel Sittaro Instituto Aktiv 107 / 97 40% 1 24.10.2026 -
Franko Kolić Istra 1961 Aktiv 91 / 99 40% 1 08.10.2026 -
Lucas Ruiz Al Shabab Aktiv 88 / 119 40% 1 06.10.2026 -
Tomás Ahumada Audax Italiano Aktiv 112 / 115 40% 2 04.10.2026 -
Fernando Bravo Independiente Rivadavia Aktiv 81 / 101 40% 1 28.09.2026 -
Matías Dufour Sportivo Trinidense Aktiv 100 / 115 40% 1 19.09.2026 -
Fernando Tapia Club America Aktiv 115 / 123 40% 1 17.09.2026 -